Valleyford, WA (99036)

3:05 AM PST on January 27, 2015 (GMT -0800)
Ponderosa | Change Station
CLOSE
Current Station
Personal Weather Station
Location: Spokane, WA
Elevation: 2142 ft
Nearby Weather Stations

Elev 2142 ft 47.61 °N, 117.26 °W | Updated 48 seconds ago

Partly Cloudy
Partly Cloudy
28.6 °F
Feels Like 29 °F
N
0.0
Wind Variable Wind from East
Gusts 0.0 mph

Today
High -- | Low -- °F
--% Chance of Precip.
Yesterday
High -- | Low -- °F
Precip. -- in
7:21 AM 4:42 PM
First Quarter, 53% visible
Pressure 30.04 in
Visibility 2.0 miles
Clouds Overcast 300 ft
Windchill 29 °F
Dew Point 28 °F
Humidity 98%
Rainfall 0.00 in
Snow Depth Not available.
UV 0 out of 12
Pollen .80 out of 12
Air Quality Not available.
Flu Activity Not available.
METAR KSFF 271053Z AUTO 06005KT 2SM BR OVC003 00/M01 A3001 RMK AO2 VIS 1V5 SLP171 T00001011

More Conditions Fewer Conditions

Pressure 30.04 in
Visibility 2.0 miles
Clouds Overcast 300 ft
Windchill 29 °F
Dew Point 28 °F
Humidity 98%
Rainfall 0.00 in
Snow Depth Not available.
UV 0 out of 12
Pollen .80 out of 12
Air Quality Not available.
Flu Activity Not available.
METAR KSFF 271053Z AUTO 06005KT 2SM BR OVC003 00/M01 A3001 RMK AO2 VIS 1V5 SLP171 T00001011

More Conditions Fewer Conditions

Nowcast | as of 1:36 am PST on January 27, 2015

Expect areas of dense fog over portions of northern Spokane County near the communities of Nine Mile Falls and between north Spokane and Deer Park. Patchy fog was also observed in downtown Spokane. And for towns and areas with temperatures below freezing...untreated roads may become very slippery. Most Road temperatures are above freezing at this time however. Motorists traveling along Interstate 90...Highway 2...and Highway 395 should be alert for quickly changing visibilities down to a quarter a mile at times.

×

10-Day Weather Forecast

Almanac

Astronomy

Jan. 27, 2015 Rise Set
Actual Time
Civil Twilight
Nautical Twilight
Astronomical Twilight
Moon
Length of Visible Light
Length of Day
Tomorrow will be .
, % of the Moon is Illuminated

Today's Extremes

State Highs State Lows

Community

WunderPhotos

Upload Photos

1,790,564 photos uploaded!

WunderBlogs® & News

Nearby

Air Quality

  Air Quality AQ Index Pollutant
Not available.

Snow Depth

Station Depth Elevation

Earthquake Activity

City Distance Mag. Time & Date
Minimum magnitude displayed is 2.5.

Coastal Water Temperatures

Place Temperature

Nearby Weather Stations